sensor_id;sensor_type;location;lat;lon;timestamp;temperature;humidity
62575;DHT22;70119;45.638;11.714;2024-01-30T00:00:00;20.30;49.70
62575;DHT22;70119;45.638;11.714;2024-01-30T00:02:26;20.30;49.70
62575;DHT22;70119;45.638;11.714;2024-01-30T00:04:52;20.30;49.70
62575;DHT22;70119;45.638;11.714;2024-01-30T00:07:18;20.20;49.70
62575;DHT22;70119;45.638;11.714;2024-01-30T00:09:47;20.20;49.70
62575;DHT22;70119;45.638;11.714;2024-01-30T00:12:13;20.30;49.70
62575;DHT22;70119;45.638;11.714;2024-01-30T00:14:41;20.20;49.60
62575;DHT22;70119;45.638;11.714;2024-01-30T00:17:09;20.20;49.70
62575;DHT22;70119;45.638;11.714;2024-01-30T00:19:35;20.20;49.70
62575;DHT22;70119;45.638;11.714;2024-01-30T00:22:01;20.20;49.60
62575;DHT22;70119;45.638;11.714;2024-01-30T00:24:26;20.20;49.70
62575;DHT22;70119;45.638;11.714;2024-01-30T00:26:52;20.20;49.60
62575;DHT22;70119;45.638;11.714;2024-01-30T00:29:18;20.20;49.70
62575;DHT22;70119;45.638;11.714;2024-01-30T00:31:45;20.20;49.70
62575;DHT22;70119;45.638;11.714;2024-01-30T00:34:11;20.20;49.70
62575;DHT22;70119;45.638;11.714;2024-01-30T00:36:37;20.20;49.60
62575;DHT22;70119;45.638;11.714;2024-01-30T00:39:03;20.20;49.70
62575;DHT22;70119;45.638;11.714;2024-01-30T00:41:34;20.10;49.60
62575;DHT22;70119;45.638;11.714;2024-01-30T00:44:00;20.20;49.70
62575;DHT22;70119;45.638;11.714;2024-01-30T00:46:26;20.10;49.60
62575;DHT22;70119;45.638;11.714;2024-01-30T00:48:52;20.10;49.60
62575;DHT22;70119;45.638;11.714;2024-01-30T00:51:18;20.10;49.60
62575;DHT22;70119;45.638;11.714;2024-01-30T00:53:44;20.10;49.60
62575;DHT22;70119;45.638;11.714;2024-01-30T00:56:10;20.10;49.60
62575;DHT22;70119;45.638;11.714;2024-01-30T00:58:36;20.10;49.60
62575;DHT22;70119;45.638;11.714;2024-01-30T01:01:02;20.10;49.60
62575;DHT22;70119;45.638;11.714;2024-01-30T01:03:28;20.10;49.60
62575;DHT22;70119;45.638;11.714;2024-01-30T01:05:54;20.10;49.60
62575;DHT22;70119;45.638;11.714;2024-01-30T01:08:19;20.10;49.60
62575;DHT22;70119;45.638;11.714;2024-01-30T01:10:46;20.10;49.60
62575;DHT22;70119;45.638;11.714;2024-01-30T01:13:11;20.10;49.70
62575;DHT22;70119;45.638;11.714;2024-01-30T01:15:37;20.10;49.70
62575;DHT22;70119;45.638;11.714;2024-01-30T01:18:03;20.10;49.70
62575;DHT22;70119;45.638;11.714;2024-01-30T01:20:29;20.10;49.70
62575;DHT22;70119;45.638;11.714;2024-01-30T01:22:55;20.10;49.70
62575;DHT22;70119;45.638;11.714;2024-01-30T01:25:21;20.10;49.70
62575;DHT22;70119;45.638;11.714;2024-01-30T01:27:47;20.00;49.70
62575;DHT22;70119;45.638;11.714;2024-01-30T01:30:17;20.00;49.70
62575;DHT22;70119;45.638;11.714;2024-01-30T01:32:49;20.10;49.80
62575;DHT22;70119;45.638;11.714;2024-01-30T01:35:27;20.00;49.70
62575;DHT22;70119;45.638;11.714;2024-01-30T01:37:54;20.00;49.80
62575;DHT22;70119;45.638;11.714;2024-01-30T01:40:25;20.00;49.80
62575;DHT22;70119;45.638;11.714;2024-01-30T01:42:52;20.00;49.80
62575;DHT22;70119;45.638;11.714;2024-01-30T01:45:19;20.00;49.80
62575;DHT22;70119;45.638;11.714;2024-01-30T01:47:47;20.00;49.70
62575;DHT22;70119;45.638;11.714;2024-01-30T01:50:15;20.00;49.80
62575;DHT22;70119;45.638;11.714;2024-01-30T01:52:46;20.00;49.80
62575;DHT22;70119;45.638;11.714;2024-01-30T01:55:13;20.00;49.80
62575;DHT22;70119;45.638;11.714;2024-01-30T01:57:39;20.00;49.80
62575;DHT22;70119;45.638;11.714;2024-01-30T02:00:05;20.00;49.80
62575;DHT22;70119;45.638;11.714;2024-01-30T02:02:35;19.90;49.80
62575;DHT22;70119;45.638;11.714;2024-01-30T02:05:01;20.00;49.80
62575;DHT22;70119;45.638;11.714;2024-01-30T02:07:28;20.00;49.80
62575;DHT22;70119;45.638;11.714;2024-01-30T02:09:54;19.90;49.80
62575;DHT22;70119;45.638;11.714;2024-01-30T02:12:20;19.90;49.80
62575;DHT22;70119;45.638;11.714;2024-01-30T02:14:47;19.90;49.80
62575;DHT22;70119;45.638;11.714;2024-01-30T02:17:13;19.90;49.80
62575;DHT22;70119;45.638;11.714;2024-01-30T02:19:40;19.90;49.80
62575;DHT22;70119;45.638;11.714;2024-01-30T02:22:06;19.90;49.80
62575;DHT22;70119;45.638;11.714;2024-01-30T02:24:33;19.90;49.80
62575;DHT22;70119;45.638;11.714;2024-01-30T02:26:59;19.90;49.80
62575;DHT22;70119;45.638;11.714;2024-01-30T02:29:25;19.90;49.90
62575;DHT22;70119;45.638;11.714;2024-01-30T02:31:50;19.90;49.90
62575;DHT22;70119;45.638;11.714;2024-01-30T02:34:18;19.90;49.90
62575;DHT22;70119;45.638;11.714;2024-01-30T02:36:45;19.90;49.80
62575;DHT22;70119;45.638;11.714;2024-01-30T02:39:10;19.90;49.90
62575;DHT22;70119;45.638;11.714;2024-01-30T02:41:36;19.90;49.80
62575;DHT22;70119;45.638;11.714;2024-01-30T02:44:03;19.90;49.80
62575;DHT22;70119;45.638;11.714;2024-01-30T02:46:29;19.90;49.80
62575;DHT22;70119;45.638;11.714;2024-01-30T02:48:55;19.90;49.80
62575;DHT22;70119;45.638;11.714;2024-01-30T02:51:21;19.90;49.80
62575;DHT22;70119;45.638;11.714;2024-01-30T02:53:47;19.90;49.80
62575;DHT22;70119;45.638;11.714;2024-01-30T02:56:13;19.80;49.80
62575;DHT22;70119;45.638;11.714;2024-01-30T02:58:40;19.80;49.80
62575;DHT22;70119;45.638;11.714;2024-01-30T03:01:06;19.90;49.80
62575;DHT22;70119;45.638;11.714;2024-01-30T03:03:32;19.80;49.80
62575;DHT22;70119;45.638;11.714;2024-01-30T03:06:00;19.80;49.80
62575;DHT22;70119;45.638;11.714;2024-01-30T03:08:27;19.80;49.80
62575;DHT22;70119;45.638;11.714;2024-01-30T03:10:53;19.80;49.80
62575;DHT22;70119;45.638;11.714;2024-01-30T03:13:19;19.80;49.80
62575;DHT22;70119;45.638;11.714;2024-01-30T03:15:45;19.80;49.90
62575;DHT22;70119;45.638;11.714;2024-01-30T03:18:11;19.80;49.90
62575;DHT22;70119;45.638;11.714;2024-01-30T03:20:37;19.80;49.90
62575;DHT22;70119;45.638;11.714;2024-01-30T03:23:03;19.70;49.90
62575;DHT22;70119;45.638;11.714;2024-01-30T03:25:28;19.70;49.90
62575;DHT22;70119;45.638;11.714;2024-01-30T03:27:54;19.70;49.80
62575;DHT22;70119;45.638;11.714;2024-01-30T03:30:20;19.80;49.80
62575;DHT22;70119;45.638;11.714;2024-01-30T03:32:46;19.70;49.80
62575;DHT22;70119;45.638;11.714;2024-01-30T03:35:12;19.70;49.80
62575;DHT22;70119;45.638;11.714;2024-01-30T03:37:38;19.70;49.80
62575;DHT22;70119;45.638;11.714;2024-01-30T03:40:04;19.70;49.80
62575;DHT22;70119;45.638;11.714;2024-01-30T03:42:30;19.70;49.80
62575;DHT22;70119;45.638;11.714;2024-01-30T03:44:56;19.70;49.80
62575;DHT22;70119;45.638;11.714;2024-01-30T03:47:22;19.70;49.80
62575;DHT22;70119;45.638;11.714;2024-01-30T03:49:48;19.70;49.80
62575;DHT22;70119;45.638;11.714;2024-01-30T03:52:14;19.70;49.80
62575;DHT22;70119;45.638;11.714;2024-01-30T03:54:40;19.70;49.80
62575;DHT22;70119;45.638;11.714;2024-01-30T03:57:06;19.70;49.80
62575;DHT22;70119;45.638;11.714;2024-01-30T03:59:31;19.70;49.80
62575;DHT22;70119;45.638;11.714;2024-01-30T04:01:57;19.70;49.80
62575;DHT22;70119;45.638;11.714;2024-01-30T04:04:23;19.70;49.80
62575;DHT22;70119;45.638;11.714;2024-01-30T04:06:49;19.70;49.80
62575;DHT22;70119;45.638;11.714;2024-01-30T04:09:15;19.60;49.80
62575;DHT22;70119;45.638;11.714;2024-01-30T04:11:41;19.70;49.80
62575;DHT22;70119;45.638;11.714;2024-01-30T04:14:08;19.60;49.80
62575;DHT22;70119;45.638;11.714;2024-01-30T04:16:34;19.70;49.80
62575;DHT22;70119;45.638;11.714;2024-01-30T04:19:00;19.70;49.80
62575;DHT22;70119;45.638;11.714;2024-01-30T04:21:26;19.60;49.70
62575;DHT22;70119;45.638;11.714;2024-01-30T04:23:52;19.60;49.80
62575;DHT22;70119;45.638;11.714;2024-01-30T04:26:18;19.60;49.80
62575;DHT22;70119;45.638;11.714;2024-01-30T04:28:45;19.60;49.80
62575;DHT22;70119;45.638;11.714;2024-01-30T04:31:11;19.60;49.80
62575;DHT22;70119;45.638;11.714;2024-01-30T04:33:37;19.60;49.80
62575;DHT22;70119;45.638;11.714;2024-01-30T04:36:03;19.60;49.80
62575;DHT22;70119;45.638;11.714;2024-01-30T04:38:31;19.60;49.80
62575;DHT22;70119;45.638;11.714;2024-01-30T04:40:57;19.60;49.80
62575;DHT22;70119;45.638;11.714;2024-01-30T04:43:22;19.60;49.80
62575;DHT22;70119;45.638;11.714;2024-01-30T04:45:49;19.60;49.80
62575;DHT22;70119;45.638;11.714;2024-01-30T04:48:15;19.60;49.80
62575;DHT22;70119;45.638;11.714;2024-01-30T04:50:41;19.60;49.80
62575;DHT22;70119;45.638;11.714;2024-01-30T04:53:07;19.50;49.80
62575;DHT22;70119;45.638;11.714;2024-01-30T04:55:34;19.50;49.80
62575;DHT22;70119;45.638;11.714;2024-01-30T04:58:01;19.60;49.80
62575;DHT22;70119;45.638;11.714;2024-01-30T05:00:27;19.60;49.80
62575;DHT22;70119;45.638;11.714;2024-01-30T05:02:54;19.50;49.80
62575;DHT22;70119;45.638;11.714;2024-01-30T05:05:20;19.50;49.80
62575;DHT22;70119;45.638;11.714;2024-01-30T05:07:47;19.50;49.80
62575;DHT22;70119;45.638;11.714;2024-01-30T05:10:13;19.50;49.80
62575;DHT22;70119;45.638;11.714;2024-01-30T05:12:40;19.50;49.80
62575;DHT22;70119;45.638;11.714;2024-01-30T05:15:06;19.50;49.90
62575;DHT22;70119;45.638;11.714;2024-01-30T05:17:32;19.50;49.80
62575;DHT22;70119;45.638;11.714;2024-01-30T05:19:59;19.40;49.80
62575;DHT22;70119;45.638;11.714;2024-01-30T05:22:24;19.50;49.80
62575;DHT22;70119;45.638;11.714;2024-01-30T05:24:50;19.50;49.70
62575;DHT22;70119;45.638;11.714;2024-01-30T05:27:16;19.50;49.70
62575;DHT22;70119;45.638;11.714;2024-01-30T05:29:42;19.50;49.70
62575;DHT22;70119;45.638;11.714;2024-01-30T05:32:08;19.50;49.70
62575;DHT22;70119;45.638;11.714;2024-01-30T05:34:35;19.50;49.70
62575;DHT22;70119;45.638;11.714;2024-01-30T05:37:00;19.50;49.60
62575;DHT22;70119;45.638;11.714;2024-01-30T05:39:26;19.50;49.60
62575;DHT22;70119;45.638;11.714;2024-01-30T05:41:52;19.50;49.60
62575;DHT22;70119;45.638;11.714;2024-01-30T05:44:18;19.50;49.70
62575;DHT22;70119;45.638;11.714;2024-01-30T05:46:44;19.50;49.60
62575;DHT22;70119;45.638;11.714;2024-01-30T05:49:09;19.40;49.60
62575;DHT22;70119;45.638;11.714;2024-01-30T05:51:35;19.40;49.60
62575;DHT22;70119;45.638;11.714;2024-01-30T05:54:01;19.40;49.60
62575;DHT22;70119;45.638;11.714;2024-01-30T05:56:29;19.40;49.60
62575;DHT22;70119;45.638;11.714;2024-01-30T05:58:55;19.50;49.60
62575;DHT22;70119;45.638;11.714;2024-01-30T06:01:21;19.40;49.60
62575;DHT22;70119;45.638;11.714;2024-01-30T06:03:47;19.50;49.60
62575;DHT22;70119;45.638;11.714;2024-01-30T06:06:13;19.40;49.60
62575;DHT22;70119;45.638;11.714;2024-01-30T06:08:38;19.40;49.70
62575;DHT22;70119;45.638;11.714;2024-01-30T06:11:04;19.40;49.70
62575;DHT22;70119;45.638;11.714;2024-01-30T06:13:30;19.40;49.60
62575;DHT22;70119;45.638;11.714;2024-01-30T06:15:57;19.40;49.60
62575;DHT22;70119;45.638;11.714;2024-01-30T06:18:23;19.40;49.60
62575;DHT22;70119;45.638;11.714;2024-01-30T06:20:49;19.40;49.60
62575;DHT22;70119;45.638;11.714;2024-01-30T06:23:15;19.40;49.60
62575;DHT22;70119;45.638;11.714;2024-01-30T06:25:41;19.30;49.70
62575;DHT22;70119;45.638;11.714;2024-01-30T06:28:07;19.30;49.70
62575;DHT22;70119;45.638;11.714;2024-01-30T06:30:34;19.30;49.80
62575;DHT22;70119;45.638;11.714;2024-01-30T06:33:00;19.20;49.80
62575;DHT22;70119;45.638;11.714;2024-01-30T06:35:26;19.30;49.80
62575;DHT22;70119;45.638;11.714;2024-01-30T06:37:51;19.30;49.90
62575;DHT22;70119;45.638;11.714;2024-01-30T06:40:17;19.20;49.90
62575;DHT22;70119;45.638;11.714;2024-01-30T06:42:43;19.30;49.90
62575;DHT22;70119;45.638;11.714;2024-01-30T06:45:09;19.20;49.90
62575;DHT22;70119;45.638;11.714;2024-01-30T06:47:35;19.30;49.90
62575;DHT22;70119;45.638;11.714;2024-01-30T06:50:01;19.20;49.90
62575;DHT22;70119;45.638;11.714;2024-01-30T06:52:29;19.20;49.90
62575;DHT22;70119;45.638;11.714;2024-01-30T06:54:54;19.20;49.90
62575;DHT22;70119;45.638;11.714;2024-01-30T06:57:20;19.30;49.90
62575;DHT22;70119;45.638;11.714;2024-01-30T06:59:46;19.20;49.80
62575;DHT22;70119;45.638;11.714;2024-01-30T07:02:12;19.30;49.90
62575;DHT22;70119;45.638;11.714;2024-01-30T07:04:38;19.30;49.80
62575;DHT22;70119;45.638;11.714;2024-01-30T07:07:05;19.30;49.80
62575;DHT22;70119;45.638;11.714;2024-01-30T07:09:31;19.30;49.80
62575;DHT22;70119;45.638;11.714;2024-01-30T07:11:57;19.30;49.80
62575;DHT22;70119;45.638;11.714;2024-01-30T07:14:26;19.30;49.80
62575;DHT22;70119;45.638;11.714;2024-01-30T07:16:52;19.30;49.70
62575;DHT22;70119;45.638;11.714;2024-01-30T07:19:18;19.40;49.70
62575;DHT22;70119;45.638;11.714;2024-01-30T07:21:44;19.40;49.70
62575;DHT22;70119;45.638;11.714;2024-01-30T07:24:11;19.40;49.60
62575;DHT22;70119;45.638;11.714;2024-01-30T07:26:37;19.40;49.60
62575;DHT22;70119;45.638;11.714;2024-01-30T07:29:03;19.50;49.70
62575;DHT22;70119;45.638;11.714;2024-01-30T07:31:29;19.50;49.70
62575;DHT22;70119;45.638;11.714;2024-01-30T07:33:55;19.50;49.70
62575;DHT22;70119;45.638;11.714;2024-01-30T07:36:21;19.60;49.70
62575;DHT22;70119;45.638;11.714;2024-01-30T07:38:47;19.60;49.60
62575;DHT22;70119;45.638;11.714;2024-01-30T07:41:13;19.70;49.60
62575;DHT22;70119;45.638;11.714;2024-01-30T07:43:39;19.70;49.50
62575;DHT22;70119;45.638;11.714;2024-01-30T07:46:06;19.80;49.40
62575;DHT22;70119;45.638;11.714;2024-01-30T07:48:35;20.00;49.30
62575;DHT22;70119;45.638;11.714;2024-01-30T07:51:04;20.10;49.00
62575;DHT22;70119;45.638;11.714;2024-01-30T07:53:32;20.20;48.80
62575;DHT22;70119;45.638;11.714;2024-01-30T07:56:00;20.40;48.50
62575;DHT22;70119;45.638;11.714;2024-01-30T07:58:28;20.60;48.20
62575;DHT22;70119;45.638;11.714;2024-01-30T08:00:54;20.80;47.80
62575;DHT22;70119;45.638;11.714;2024-01-30T08:03:24;21.10;47.40
62575;DHT22;70119;45.638;11.714;2024-01-30T08:05:50;21.20;47.10
62575;DHT22;70119;45.638;11.714;2024-01-30T08:08:15;21.40;46.80
62575;DHT22;70119;45.638;11.714;2024-01-30T08:10:41;21.60;46.50
62575;DHT22;70119;45.638;11.714;2024-01-30T08:13:07;21.80;46.10
62575;DHT22;70119;45.638;11.714;2024-01-30T08:15:34;21.90;45.90
62575;DHT22;70119;45.638;11.714;2024-01-30T08:18:00;22.10;45.70
62575;DHT22;70119;45.638;11.714;2024-01-30T08:20:26;22.30;45.50
62575;DHT22;70119;45.638;11.714;2024-01-30T08:22:52;22.40;45.20
62575;DHT22;70119;45.638;11.714;2024-01-30T08:25:18;22.50;44.90
62575;DHT22;70119;45.638;11.714;2024-01-30T08:27:44;22.60;44.80
62575;DHT22;70119;45.638;11.714;2024-01-30T08:30:10;22.80;44.60
62575;DHT22;70119;45.638;11.714;2024-01-30T08:32:36;23.00;44.40
62575;DHT22;70119;45.638;11.714;2024-01-30T08:35:03;23.10;44.10
62575;DHT22;70119;45.638;11.714;2024-01-30T08:37:30;23.20;44.00
62575;DHT22;70119;45.638;11.714;2024-01-30T08:39:56;23.30;43.80
62575;DHT22;70119;45.638;11.714;2024-01-30T08:42:27;23.50;43.60
62575;DHT22;70119;45.638;11.714;2024-01-30T08:44:53;23.60;43.40
62575;DHT22;70119;45.638;11.714;2024-01-30T08:47:19;23.70;43.20
62575;DHT22;70119;45.638;11.714;2024-01-30T08:49:46;23.70;43.20
62575;DHT22;70119;45.638;11.714;2024-01-30T08:52:12;23.80;43.10
62575;DHT22;70119;45.638;11.714;2024-01-30T08:54:39;23.80;43.10
62575;DHT22;70119;45.638;11.714;2024-01-30T08:57:05;23.70;43.10
62575;DHT22;70119;45.638;11.714;2024-01-30T08:59:30;23.70;43.20
62575;DHT22;70119;45.638;11.714;2024-01-30T09:01:56;23.60;43.30
62575;DHT22;70119;45.638;11.714;2024-01-30T09:04:24;23.60;43.40
62575;DHT22;70119;45.638;11.714;2024-01-30T09:06:50;23.60;43.50
62575;DHT22;70119;45.638;11.714;2024-01-30T09:09:16;23.50;43.50
62575;DHT22;70119;45.638;11.714;2024-01-30T09:11:42;23.50;43.60
62575;DHT22;70119;45.638;11.714;2024-01-30T09:14:09;23.40;43.60
62575;DHT22;70119;45.638;11.714;2024-01-30T09:16:35;23.30;43.80
62575;DHT22;70119;45.638;11.714;2024-01-30T09:19:01;23.20;44.00
62575;DHT22;70119;45.638;11.714;2024-01-30T09:21:27;23.10;44.20
62575;DHT22;70119;45.638;11.714;2024-01-30T09:23:54;23.00;44.40
62575;DHT22;70119;45.638;11.714;2024-01-30T09:26:26;23.00;44.50
62575;DHT22;70119;45.638;11.714;2024-01-30T09:28:52;22.90;44.60
62575;DHT22;70119;45.638;11.714;2024-01-30T09:31:18;22.90;44.70
62575;DHT22;70119;45.638;11.714;2024-01-30T09:33:44;22.80;44.70
62575;DHT22;70119;45.638;11.714;2024-01-30T09:36:12;22.70;44.80
62575;DHT22;70119;45.638;11.714;2024-01-30T09:38:41;22.70;44.90
62575;DHT22;70119;45.638;11.714;2024-01-30T09:41:09;22.70;44.90
62575;DHT22;70119;45.638;11.714;2024-01-30T09:43:38;22.70;44.90
62575;DHT22;70119;45.638;11.714;2024-01-30T09:46:05;22.60;44.90
62575;DHT22;70119;45.638;11.714;2024-01-30T09:48:34;22.60;44.90
62575;DHT22;70119;45.638;11.714;2024-01-30T09:51:00;22.60;44.90
62575;DHT22;70119;45.638;11.714;2024-01-30T09:53:27;22.60;44.90
62575;DHT22;70119;45.638;11.714;2024-01-30T09:55:53;22.60;44.90
62575;DHT22;70119;45.638;11.714;2024-01-30T09:58:19;22.60;44.80
62575;DHT22;70119;45.638;11.714;2024-01-30T10:00:45;22.60;44.80
62575;DHT22;70119;45.638;11.714;2024-01-30T10:03:11;22.60;44.90
62575;DHT22;70119;45.638;11.714;2024-01-30T10:05:37;22.50;44.90
62575;DHT22;70119;45.638;11.714;2024-01-30T10:08:06;22.50;44.90
62575;DHT22;70119;45.638;11.714;2024-01-30T10:10:35;22.50;44.90
62575;DHT22;70119;45.638;11.714;2024-01-30T10:13:01;22.50;44.90
62575;DHT22;70119;45.638;11.714;2024-01-30T10:15:28;22.50;44.80
62575;DHT22;70119;45.638;11.714;2024-01-30T10:17:54;22.50;44.90
62575;DHT22;70119;45.638;11.714;2024-01-30T10:20:20;22.50;45.00
62575;DHT22;70119;45.638;11.714;2024-01-30T10:22:49;22.50;45.00
62575;DHT22;70119;45.638;11.714;2024-01-30T10:25:17;22.40;44.90
62575;DHT22;70119;45.638;11.714;2024-01-30T10:27:43;22.50;45.00
62575;DHT22;70119;45.638;11.714;2024-01-30T10:30:09;22.50;44.90
62575;DHT22;70119;45.638;11.714;2024-01-30T10:32:35;22.40;44.80
62575;DHT22;70119;45.638;11.714;2024-01-30T10:35:01;22.40;44.80
62575;DHT22;70119;45.638;11.714;2024-01-30T10:37:28;22.40;44.90
62575;DHT22;70119;45.638;11.714;2024-01-30T10:40:01;22.50;44.80
62575;DHT22;70119;45.638;11.714;2024-01-30T10:42:32;22.40;44.70
62575;DHT22;70119;45.638;11.714;2024-01-30T10:45:10;22.40;44.70
62575;DHT22;70119;45.638;11.714;2024-01-30T10:47:50;22.40;44.20
62575;DHT22;70119;45.638;11.714;2024-01-30T10:50:18;22.40;44.50
62575;DHT22;70119;45.638;11.714;2024-01-30T10:52:46;22.40;44.60
62575;DHT22;70119;45.638;11.714;2024-01-30T10:55:14;22.40;44.50
62575;DHT22;70119;45.638;11.714;2024-01-30T10:57:41;22.40;44.60
62575;DHT22;70119;45.638;11.714;2024-01-30T11:00:11;22.40;44.50
62575;DHT22;70119;45.638;11.714;2024-01-30T11:02:45;22.40;44.40
62575;DHT22;70119;45.638;11.714;2024-01-30T11:05:12;22.40;44.40
62575;DHT22;70119;45.638;11.714;2024-01-30T11:07:41;22.40;44.50
62575;DHT22;70119;45.638;11.714;2024-01-30T11:10:07;22.40;44.40
62575;DHT22;70119;45.638;11.714;2024-01-30T11:12:38;22.40;44.50
62575;DHT22;70119;45.638;11.714;2024-01-30T11:15:12;22.40;44.50
62575;DHT22;70119;45.638;11.714;2024-01-30T11:17:53;22.40;44.50
62575;DHT22;70119;45.638;11.714;2024-01-30T11:20:30;22.40;44.50
62575;DHT22;70119;45.638;11.714;2024-01-30T11:23:01;22.40;44.60
62575;DHT22;70119;45.638;11.714;2024-01-30T11:25:32;22.40;44.50
62575;DHT22;70119;45.638;11.714;2024-01-30T11:27:58;22.40;44.30
62575;DHT22;70119;45.638;11.714;2024-01-30T11:30:28;22.30;44.30
62575;DHT22;70119;45.638;11.714;2024-01-30T11:33:07;22.30;44.50
62575;DHT22;70119;45.638;11.714;2024-01-30T11:35:46;22.30;43.90
62575;DHT22;70119;45.638;11.714;2024-01-30T11:38:14;22.30;44.30
62575;DHT22;70119;45.638;11.714;2024-01-30T11:40:41;22.30;44.60
62575;DHT22;70119;45.638;11.714;2024-01-30T11:43:08;22.30;44.60
62575;DHT22;70119;45.638;11.714;2024-01-30T11:45:35;22.20;44.70
62575;DHT22;70119;45.638;11.714;2024-01-30T11:48:02;22.20;44.60
62575;DHT22;70119;45.638;11.714;2024-01-30T11:50:33;22.20;44.80
62575;DHT22;70119;45.638;11.714;2024-01-30T11:53:00;22.20;44.90
62575;DHT22;70119;45.638;11.714;2024-01-30T11:55:26;22.20;44.90
62575;DHT22;70119;45.638;11.714;2024-01-30T11:57:55;22.10;44.90
62575;DHT22;70119;45.638;11.714;2024-01-30T12:00:21;22.10;44.60
62575;DHT22;70119;45.638;11.714;2024-01-30T12:02:52;22.10;44.80
62575;DHT22;70119;45.638;11.714;2024-01-30T12:05:22;22.10;44.70
62575;DHT22;70119;45.638;11.714;2024-01-30T12:07:48;22.10;45.00
62575;DHT22;70119;45.638;11.714;2024-01-30T12:10:14;22.10;45.40
62575;DHT22;70119;45.638;11.714;2024-01-30T12:12:50;22.00;45.30
62575;DHT22;70119;45.638;11.714;2024-01-30T12:15:17;22.00;45.00
62575;DHT22;70119;45.638;11.714;2024-01-30T12:17:44;22.00;45.10
62575;DHT22;70119;45.638;11.714;2024-01-30T12:20:12;21.90;44.80
62575;DHT22;70119;45.638;11.714;2024-01-30T12:22:42;21.90;45.20
62575;DHT22;70119;45.638;11.714;2024-01-30T12:25:09;21.90;44.90
62575;DHT22;70119;45.638;11.714;2024-01-30T12:27:36;21.80;44.80
62575;DHT22;70119;45.638;11.714;2024-01-30T12:30:10;21.80;44.90
62575;DHT22;70119;45.638;11.714;2024-01-30T12:32:43;21.80;45.20
62575;DHT22;70119;45.638;11.714;2024-01-30T12:35:16;21.80;45.20
62575;DHT22;70119;45.638;11.714;2024-01-30T12:37:46;21.80;45.20
62575;DHT22;70119;45.638;11.714;2024-01-30T12:40:15;21.80;45.30
62575;DHT22;70119;45.638;11.714;2024-01-30T12:42:41;21.70;45.30
62575;DHT22;70119;45.638;11.714;2024-01-30T12:45:08;21.70;45.10
62575;DHT22;70119;45.638;11.714;2024-01-30T12:47:35;21.70;45.00
62575;DHT22;70119;45.638;11.714;2024-01-30T12:50:01;21.70;45.10
62575;DHT22;70119;45.638;11.714;2024-01-30T12:52:30;21.60;45.10
62575;DHT22;70119;45.638;11.714;2024-01-30T12:54:57;21.60;45.40
62575;DHT22;70119;45.638;11.714;2024-01-30T12:57:23;21.60;45.40
62575;DHT22;70119;45.638;11.714;2024-01-30T12:59:49;21.70;45.50
62575;DHT22;70119;45.638;11.714;2024-01-30T13:02:15;21.70;45.60
62575;DHT22;70119;45.638;11.714;2024-01-30T13:04:42;21.60;45.80
62575;DHT22;70119;45.638;11.714;2024-01-30T13:07:08;21.70;45.90
62575;DHT22;70119;45.638;11.714;2024-01-30T13:09:34;21.70;45.90
62575;DHT22;70119;45.638;11.714;2024-01-30T13:12:00;21.70;45.50
62575;DHT22;70119;45.638;11.714;2024-01-30T13:14:26;21.60;45.60
62575;DHT22;70119;45.638;11.714;2024-01-30T13:16:52;21.60;45.70
62575;DHT22;70119;45.638;11.714;2024-01-30T13:19:18;21.60;45.40
62575;DHT22;70119;45.638;11.714;2024-01-30T13:21:44;21.60;45.30
62575;DHT22;70119;45.638;11.714;2024-01-30T13:24:10;21.60;45.50
62575;DHT22;70119;45.638;11.714;2024-01-30T13:26:36;21.60;45.40
62575;DHT22;70119;45.638;11.714;2024-01-30T13:29:02;21.60;44.90
62575;DHT22;70119;45.638;11.714;2024-01-30T13:31:29;21.60;44.80
62575;DHT22;70119;45.638;11.714;2024-01-30T13:33:55;21.50;44.70
62575;DHT22;70119;45.638;11.714;2024-01-30T13:36:22;21.60;44.60
62575;DHT22;70119;45.638;11.714;2024-01-30T13:38:48;21.60;44.30
62575;DHT22;70119;45.638;11.714;2024-01-30T13:41:14;21.50;44.50
62575;DHT22;70119;45.638;11.714;2024-01-30T13:43:39;21.50;44.80
62575;DHT22;70119;45.638;11.714;2024-01-30T13:46:05;21.50;44.50
62575;DHT22;70119;45.638;11.714;2024-01-30T13:48:31;21.40;44.60
62575;DHT22;70119;45.638;11.714;2024-01-30T13:50:57;21.50;44.60
62575;DHT22;70119;45.638;11.714;2024-01-30T13:53:23;21.40;44.60
62575;DHT22;70119;45.638;11.714;2024-01-30T13:55:49;21.40;44.50
62575;DHT22;70119;45.638;11.714;2024-01-30T13:58:15;21.40;44.50
62575;DHT22;70119;45.638;11.714;2024-01-30T14:00:41;21.40;44.60
62575;DHT22;70119;45.638;11.714;2024-01-30T14:03:07;21.40;44.60
62575;DHT22;70119;45.638;11.714;2024-01-30T14:05:32;21.30;44.30
62575;DHT22;70119;45.638;11.714;2024-01-30T14:07:59;21.40;44.70
62575;DHT22;70119;45.638;11.714;2024-01-30T14:10:26;21.30;44.80
62575;DHT22;70119;45.638;11.714;2024-01-30T14:12:52;21.40;44.80
62575;DHT22;70119;45.638;11.714;2024-01-30T14:15:17;21.30;44.80
62575;DHT22;70119;45.638;11.714;2024-01-30T14:17:44;21.30;44.80
62575;DHT22;70119;45.638;11.714;2024-01-30T14:20:11;21.30;44.40
62575;DHT22;70119;45.638;11.714;2024-01-30T14:22:37;21.30;44.30
62575;DHT22;70119;45.638;11.714;2024-01-30T14:25:03;21.20;44.50
62575;DHT22;70119;45.638;11.714;2024-01-30T14:27:30;21.20;44.50
62575;DHT22;70119;45.638;11.714;2024-01-30T14:29:56;21.20;44.50
62575;DHT22;70119;45.638;11.714;2024-01-30T14:32:23;21.20;44.60
62575;DHT22;70119;45.638;11.714;2024-01-30T14:34:50;21.20;44.50
62575;DHT22;70119;45.638;11.714;2024-01-30T14:37:16;21.20;44.60
62575;DHT22;70119;45.638;11.714;2024-01-30T14:39:42;21.20;44.70
62575;DHT22;70119;45.638;11.714;2024-01-30T14:42:08;21.10;44.70
62575;DHT22;70119;45.638;11.714;2024-01-30T14:44:34;21.20;44.80
62575;DHT22;70119;45.638;11.714;2024-01-30T14:47:00;21.10;44.90
62575;DHT22;70119;45.638;11.714;2024-01-30T14:49:27;21.10;44.90
62575;DHT22;70119;45.638;11.714;2024-01-30T14:51:53;21.10;44.90
62575;DHT22;70119;45.638;11.714;2024-01-30T14:54:19;21.10;45.10
62575;DHT22;70119;45.638;11.714;2024-01-30T14:56:45;21.10;45.20
62575;DHT22;70119;45.638;11.714;2024-01-30T14:59:11;21.10;45.20
62575;DHT22;70119;45.638;11.714;2024-01-30T15:01:37;21.10;45.30
62575;DHT22;70119;45.638;11.714;2024-01-30T15:04:03;21.10;45.40
62575;DHT22;70119;45.638;11.714;2024-01-30T15:06:29;21.10;45.50
62575;DHT22;70119;45.638;11.714;2024-01-30T15:08:55;21.10;45.60
62575;DHT22;70119;45.638;11.714;2024-01-30T15:11:21;21.10;45.60